createdAt,value
2022-09-15T00:17:59.512Z,91.01
2022-09-15T00:48:04.957Z,90.94
2022-09-15T01:18:16.053Z,89.80
2022-09-15T01:48:22.153Z,89.68
2022-09-15T02:18:34.650Z,90.68
2022-09-15T02:48:39.316Z,89.44
2022-09-15T03:18:43.784Z,89.02
2022-09-15T03:48:47.900Z,88.20
2022-09-15T04:18:52.702Z,88.27
2022-09-15T04:48:56.657Z,86.89
2022-09-15T05:19:02.899Z,85.99
2022-09-15T05:49:08.661Z,86.73
2022-09-15T06:19:12.734Z,86.17
2022-09-15T06:49:17.165Z,83.37
2022-09-15T07:19:21.331Z,80.27
2022-09-15T07:49:25.388Z,77.40
2022-09-15T08:19:29.619Z,78.38
2022-09-15T08:49:50.996Z,69.84
2022-09-15T09:20:10.951Z,71.13
2022-09-15T09:50:35.926Z,72.48
2022-09-15T10:20:48.022Z,58.54
2022-09-15T10:50:57.458Z,54.54
2022-09-15T11:21:19.404Z,69.01
2022-09-15T11:51:26.566Z,65.76
2022-09-15T12:21:36.583Z,60.08
2022-09-15T12:51:41.740Z,57.85
2022-09-15T13:21:48.228Z,58.84
2022-09-15T13:52:00.085Z,57.65
2022-09-15T14:22:22.014Z,52.04
2022-09-15T14:52:29.505Z,50.84
2022-09-15T15:22:34.732Z,50.95
2022-09-15T15:52:38.941Z,57.72
2022-09-15T16:22:43.301Z,62.53
2022-09-15T16:52:47.492Z,64.21
2022-09-15T17:22:52.222Z,69.50
2022-09-15T17:52:57.140Z,64.36
2022-09-15T18:23:01.422Z,66.11
2022-09-15T18:53:05.916Z,68.42
2022-09-15T19:23:10.562Z,69.17
2022-09-15T19:53:14.714Z,69.62
2022-09-15T20:23:18.886Z,69.42
2022-09-15T20:53:23.000Z,70.74
2022-09-15T21:23:27.160Z,71.21
2022-09-15T21:53:32.164Z,72.37
2022-09-15T22:23:36.614Z,72.85
2022-09-15T22:53:40.583Z,73.42
2022-09-15T23:23:48.821Z,72.83
2022-09-15T23:53:53.170Z,72.14
